South Zanesville, Ohio
Current Conditions -  °F | °C
As of 12:53 AM on Wednesday 28 Jan 2015 (Local Time) from KZZV Reporting Station
Overcast Overcast  
Wind Chill:   Ceiling: 1400
Heat Index: 15°   Visibility: 10mi
Dew Point:   Wind: 5mph
Humidity: 77%   Direction: NA
Pressure: 30.2"   Gusts: NA
Location:  39.9406°N, 82.0133°W
Report Text: KZZV 280553Z AUTO VRB04KT 10SM OVC014 M09/M13 A3020 RMK AO2 SLP241 T10941128 11067 21100 51008
Loading
Personal Weather Stations






























Interactive Weather Map New forecast layout! Learn more

10-Day Weather Forecast

Advertisements
Track Severe Weather on mobile